Time;durP1;ratioP1;P1;durP2;ratioP2;P2;SDS_P1;SDS_P2;PMS_P1;PMS_P2;Temp;Humidity;BMP_temperature;BMP_pressure;BME280_temperature;BME280_humidity;BME280_pressure;Samples;Min_cycle;Max_cycle;Signal;HPM_P1;HPM_P2
2023/10/27 00:01:03;;;;;;;3.70;1.50;;;24.20;58.80;;;;;;6223074;27;80388;-66
2023/10/27 00:04:04;;;;;;;2.40;1.45;;;24.20;58.70;;;;;;6226376;27;80309;-66
2023/10/27 00:07:05;;;;;;;1.90;1.27;;;24.10;59.00;;;;;;6222085;27;80681;-68
2023/10/27 00:10:05;;;;;;;3.05;1.38;;;24.10;59.00;;;;;;6226292;27;80715;-69
2023/10/27 00:13:05;;;;;;;2.17;1.35;;;24.20;59.10;;;;;;6222515;27;82086;-69
2023/10/27 00:16:06;;;;;;;3.80;1.30;;;24.20;59.00;;;;;;6213239;27;81426;-70
2023/10/27 00:19:06;;;;;;;1.52;1.20;;;24.20;59.00;;;;;;6186426;28;81491;-72
2023/10/27 00:22:07;;;;;;;2.60;1.27;;;24.20;58.90;;;;;;6199653;28;80895;-69
2023/10/27 00:25:08;;;;;;;1.92;1.20;;;24.20;59.00;;;;;;6169521;28;80472;-70
2023/10/27 00:28:08;;;;;;;1.52;1.02;;;24.20;59.00;;;;;;6172610;28;80462;-74
2023/10/27 00:31:09;;;;;;;2.20;1.35;;;24.10;59.10;;;;;;6178789;28;80425;-72
2023/10/27 00:34:09;;;;;;;1.80;1.20;;;24.20;59.20;;;;;;6177330;28;83018;-72
2023/10/27 00:37:10;;;;;;;1.00;0.90;;;24.10;59.40;;;;;;6169344;28;81860;-70
2023/10/27 00:40:10;;;;;;;1.88;1.27;;;24.20;59.50;;;;;;6181428;28;83324;-69
2023/10/27 00:43:11;;;;;;;1.48;1.08;;;24.20;59.30;;;;;;6175482;28;83641;-69
2023/10/27 00:46:11;;;;;;;1.58;0.98;;;24.20;59.30;;;;;;6182467;28;80153;-68
2023/10/27 00:49:12;;;;;;;1.35;1.08;;;24.20;59.20;;;;;;6181732;28;83614;-69
2023/10/27 00:52:12;;;;;;;1.38;1.10;;;24.20;59.40;;;;;;6172515;28;80852;-70
2023/10/27 00:55:13;;;;;;;2.28;1.40;;;24.20;59.50;;;;;;6175061;28;81380;-69
2023/10/27 00:58:14;;;;;;;1.80;1.00;;;24.20;59.50;;;;;;6177932;28;82089;-68
2023/10/27 01:01:15;;;;;;;1.30;1.02;;;24.20;59.60;;;;;;6175593;28;82732;-69
2023/10/27 01:04:16;;;;;;;1.80;0.93;;;24.10;59.40;;;;;;6190079;27;81996;-69
2023/10/27 01:07:16;;;;;;;1.13;1.00;;;24.10;59.50;;;;;;6176614;28;80401;-69
2023/10/27 01:10:17;;;;;;;2.05;1.00;;;24.10;59.50;;;;;;6189019;27;81717;-68
2023/10/27 01:13:17;;;;;;;1.00;0.75;;;24.10;59.60;;;;;;6147117;28;83000;-69
2023/10/27 01:16:18;;;;;;;1.38;1.08;;;24.10;59.70;;;;;;6156667;28;83321;-69
2023/10/27 01:19:19;;;;;;;1.40;1.05;;;24.10;59.60;;;;;;6169288;28;82042;-69
2023/10/27 01:22:19;;;;;;;1.08;0.95;;;24.10;59.70;;;;;;6168117;28;81465;-70
2023/10/27 01:25:20;;;;;;;1.55;0.88;;;24.10;59.70;;;;;;6182871;28;80758;-69
2023/10/27 01:28:20;;;;;;;0.88;0.70;;;24.10;59.80;;;;;;6168988;28;81477;-69
2023/10/27 01:31:21;;;;;;;1.65;1.23;;;24.10;59.80;;;;;;6175762;28;81533;-72
2023/10/27 01:34:23;;;;;;;2.13;1.20;;;24.10;59.90;;;;;;6175800;28;83528;-72
2023/10/27 01:37:23;;;;;;;1.30;1.00;;;24.10;59.90;;;;;;6176147;28;80505;-71
2023/10/27 01:40:24;;;;;;;5.22;0.90;;;24.10;59.80;;;;;;6181658;28;80686;-72
2023/10/27 01:43:24;;;;;;;1.00;0.90;;;24.10;59.80;;;;;;6189683;27;80748;-70
2023/10/27 01:46:25;;;;;;;1.60;0.90;;;24.10;59.80;;;;;;6166608;28;80507;-71
2023/10/27 01:49:25;;;;;;;1.52;0.80;;;24.10;59.70;;;;;;6189143;28;83058;-67
2023/10/27 01:52:26;;;;;;;1.02;0.75;;;24.10;60.50;;;;;;6166258;28;81740;-67
2023/10/27 01:55:26;;;;;;;0.90;0.73;;;24.00;59.70;;;;;;6157778;28;80358;-66
2023/10/27 01:58:27;;;;;;;0.88;0.77;;;24.10;59.80;;;;;;6159713;28;80684;-66
2023/10/27 02:01:28;;;;;;;1.10;0.73;;;24.10;59.90;;;;;;6167759;28;82596;-69
2023/10/27 02:04:28;;;;;;;2.20;0.95;;;24.10;59.90;;;;;;6159006;28;81254;-68
2023/10/27 02:07:29;;;;;;;2.30;0.80;;;24.10;59.80;;;;;;6165005;28;81468;-67
2023/10/27 02:10:29;;;;;;;1.70;1.00;;;24.10;60.00;;;;;;6154279;28;80557;-67
2023/10/27 02:13:30;;;;;;;1.20;0.85;;;24.10;59.90;;;;;;6163188;28;83266;-67
2023/10/27 02:16:30;;;;;;;7.72;0.90;;;24.10;59.80;;;;;;6157001;28;80868;-67
2023/10/27 02:19:31;;;;;;;0.95;0.77;;;24.10;59.90;;;;;;6167805;28;81612;-67
2023/10/27 02:22:31;;;;;;;0.75;0.75;;;24.20;59.90;;;;;;6179647;28;82149;-67
2023/10/27 02:25:32;;;;;;;0.82;0.68;;;24.10;59.90;;;;;;6168831;28;81024;-67
2023/10/27 02:28:32;;;;;;;1.15;0.85;;;24.20;60.00;;;;;;6176229;28;80248;-68
2023/10/27 02:31:33;;;;;;;0.93;0.90;;;24.20;60.00;;;;;;6173753;28;80926;-68
2023/10/27 02:34:33;;;;;;;2.45;0.75;;;24.20;60.00;;;;;;6181001;28;81579;-70
2023/10/27 02:37:34;;;;;;;0.90;0.75;;;24.20;60.00;;;;;;6153972;28;80299;-67
2023/10/27 02:40:35;;;;;;;1.00;0.90;;;24.20;60.00;;;;;;6164515;28;80632;-68
2023/10/27 02:43:35;;;;;;;2.10;0.95;;;24.20;59.80;;;;;;6157329;28;81728;-71
2023/10/27 02:46:36;;;;;;;1.63;1.00;;;24.20;59.90;;;;;;6161353;28;81891;-70
2023/10/27 02:49:36;;;;;;;4.35;0.98;;;24.20;59.90;;;;;;6173503;28;80438;-72
2023/10/27 02:52:37;;;;;;;1.27;0.70;;;24.20;59.90;;;;;;6204918;27;80611;-68
2023/10/27 02:55:37;;;;;;;0.75;0.68;;;24.10;59.90;;;;;;6209383;28;80538;-69
2023/10/27 02:58:38;;;;;;;4.45;1.50;;;24.20;60.10;;;;;;6222200;28;81383;-73
2023/10/27 03:01:38;;;;;;;0.95;0.70;;;24.20;60.00;;;;;;6215096;28;80186;-72
2023/10/27 03:04:39;;;;;;;1.00;0.70;;;24.20;60.10;;;;;;6208511;28;81823;-72
2023/10/27 03:07:39;;;;;;;1.10;0.82;;;24.20;60.00;;;;;;6216074;28;80591;-72
2023/10/27 03:10:40;;;;;;;0.77;0.75;;;24.10;59.90;;;;;;6201163;28;80387;-74
2023/10/27 03:13:41;;;;;;;1.70;1.15;;;24.20;60.10;;;;;;6223574;27;81984;-69
2023/10/27 03:16:41;;;;;;;0.98;0.63;;;24.10;60.00;;;;;;6196561;28;83177;-70
2023/10/27 03:19:42;;;;;;;1.88;0.80;;;24.10;60.00;;;;;;6182455;28;81040;-72
2023/10/27 03:22:42;;;;;;;0.85;0.82;;;24.10;59.90;;;;;;6194809;28;80410;-70
2023/10/27 03:25:43;;;;;;;2.75;0.90;;;24.10;59.90;;;;;;6186231;28;81868;-70
2023/10/27 03:28:44;;;;;;;1.92;0.77;;;24.10;60.00;;;;;;6190372;28;81912;-68
2023/10/27 03:31:44;;;;;;;1.02;0.75;;;24.10;60.00;;;;;;6184572;28;80896;-70
2023/10/27 03:34:46;;;;;;;2.28;0.82;;;24.10;59.90;;;;;;6178001;28;80553;-72
2023/10/27 03:37:46;;;;;;;0.60;0.60;;;24.10;59.80;;;;;;6178425;28;83778;-75
2023/10/27 03:40:48;;;;;;;2.08;1.00;;;24.10;59.80;;;;;;6175119;28;80460;-69
2023/10/27 03:43:49;;;;;;;1.65;0.93;;;24.10;59.50;;;;;;6187030;28;80536;-74
2023/10/27 03:46:49;;;;;;;1.27;0.88;;;24.10;59.30;;;;;;6168951;28;80350;-75
2023/10/27 03:49:50;;;;;;;1.52;0.93;;;24.10;59.40;;;;;;6155580;28;80564;-72
2023/10/27 03:52:52;;;;;;;2.10;1.05;;;24.10;59.20;;;;;;6182085;28;80583;-67
2023/10/27 03:55:52;;;;;;;1.27;0.82;;;24.10;59.10;;;;;;6189886;28;84030;-63
2023/10/27 03:58:53;;;;;;;4.10;1.10;;;24.10;59.00;;;;;;6164426;28;84132;-60
2023/10/27 04:01:53;;;;;;;1.58;0.82;;;24.20;59.20;;;;;;6196302;28;80438;-64
2023/10/27 04:04:54;;;;;;;2.17;1.10;;;24.20;59.00;;;;;;6213543;27;80567;-61
2023/10/27 04:07:54;;;;;;;5.25;1.30;;;24.30;59.20;;;;;;6178911;28;83246;-62
2023/10/27 04:10:55;;;;;;;1.88;1.05;;;24.20;59.10;;;;;;6198807;28;81593;-61
2023/10/27 04:13:55;;;;;;;1.15;1.05;;;24.30;59.10;;;;;;6182129;28;80772;-63
2023/10/27 04:16:56;;;;;;;1.90;1.15;;;24.30;59.10;;;;;;6182113;28;80658;-68
2023/10/27 04:19:56;;;;;;;1.52;1.15;;;24.30;58.90;;;;;;6190862;28;81343;-65
2023/10/27 04:22:57;;;;;;;1.20;1.00;;;24.30;58.90;;;;;;6175492;28;80381;-65
2023/10/27 04:25:57;;;;;;;2.65;1.30;;;24.30;58.90;;;;;;6181775;28;80721;-63
2023/10/27 04:28:58;;;;;;;2.38;0.90;;;24.30;58.90;;;;;;6185881;28;83282;-62
2023/10/27 04:31:58;;;;;;;4.30;1.10;;;24.30;58.80;;;;;;6180699;28;80543;-65
2023/10/27 04:34:59;;;;;;;2.17;1.30;;;24.30;59.00;;;;;;6161497;28;85926;-68
2023/10/27 04:37:59;;;;;;;3.65;1.00;;;24.30;59.00;;;;;;6182043;28;80951;-67
2023/10/27 04:41:00;;;;;;;2.75;1.15;;;24.30;59.20;;;;;;6183711;28;80470;-71
2023/10/27 04:44:00;;;;;;;5.32;1.13;;;24.40;59.40;;;;;;6173722;28;80437;-71
2023/10/27 04:47:01;;;;;;;2.20;1.23;;;24.40;59.40;;;;;;6186324;28;83151;-67
2023/10/27 04:50:01;;;;;;;5.57;1.42;;;24.30;59.60;;;;;;6182656;28;81331;-72
2023/10/27 04:53:02;;;;;;;2.28;1.00;;;24.30;59.90;;;;;;6173041;28;81451;-70
2023/10/27 04:56:02;;;;;;;2.35;1.13;;;24.30;60.10;;;;;;6177585;28;80485;-68
2023/10/27 04:59:03;;;;;;;4.25;1.35;;;24.40;59.90;;;;;;6179304;28;83297;-73
2023/10/27 05:02:03;;;;;;;5.05;1.20;;;24.40;60.00;;;;;;6173046;28;80477;-65
2023/10/27 05:05:04;;;;;;;13.88;2.22;;;24.40;60.10;;;;;;6198156;28;80098;-75
2023/10/27 05:08:04;;;;;;;11.15;2.10;;;24.40;60.20;;;;;;6181181;28;80816;-71
2023/10/27 05:11:05;;;;;;;3.08;1.20;;;24.40;60.80;;;;;;6191925;28;80516;-68
2023/10/27 05:14:06;;;;;;;5.40;1.42;;;24.40;60.30;;;;;;6181284;28;80368;-67
2023/10/27 05:17:06;;;;;;;3.17;1.70;;;24.40;60.30;;;;;;6166828;28;82933;-68
2023/10/27 05:20:07;;;;;;;7.55;2.22;;;24.40;60.20;;;;;;6171390;28;80437;-68
2023/10/27 05:23:08;;;;;;;4.95;1.70;;;24.40;59.90;;;;;;6203595;28;81042;-68
2023/10/27 05:26:08;;;;;;;11.30;2.05;;;24.40;59.60;;;;;;6214061;27;81494;-68
2023/10/27 05:29:10;;;;;;;7.65;1.95;;;24.40;59.80;;;;;;6200700;28;86756;-72
2023/10/27 05:32:12;;;;;;;2.45;1.30;;;24.40;59.60;;;;;;6191395;28;83796;-65
2023/10/27 05:35:12;;;;;;;3.78;1.58;;;24.30;59.80;;;;;;6196205;28;80261;-61
2023/10/27 05:38:14;;;;;;;2.97;1.45;;;24.20;59.60;;;;;;6153294;28;84199;-61
2023/10/27 05:41:14;;;;;;;8.73;2.45;;;24.10;59.40;;;;;;6132847;28;83487;-61
2023/10/27 05:44:15;;;;;;;2.88;1.88;;;24.10;59.50;;;;;;6135973;28;81706;-60
2023/10/27 05:47:16;;;;;;;2.92;1.50;;;24.00;58.90;;;;;;6120587;28;81717;-61
2023/10/27 05:50:16;;;;;;;3.55;1.60;;;23.90;58.90;;;;;;6140724;28;82307;-60
2023/10/27 05:53:17;;;;;;;4.03;1.95;;;23.90;58.70;;;;;;6141209;28;82059;-62
2023/10/27 05:56:17;;;;;;;2.97;1.90;;;23.80;58.40;;;;;;6150430;28;80187;-61
2023/10/27 05:59:18;;;;;;;3.13;1.60;;;23.80;58.20;;;;;;6175374;28;80943;-61
2023/10/27 06:02:18;;;;;;;3.38;1.67;;;23.80;58.50;;;;;;6159662;28;80457;-62
2023/10/27 06:05:20;;;;;;;2.63;1.55;;;23.70;58.20;;;;;;6145018;28;81416;-66
2023/10/27 06:08:20;;;;;;;5.88;1.85;;;23.70;57.90;;;;;;6159155;28;82976;-64
2023/10/27 06:11:21;;;;;;;2.65;1.80;;;23.70;57.90;;;;;;6165870;28;80537;-67
2023/10/27 06:14:21;;;;;;;2.90;1.88;;;23.70;58.10;;;;;;6166215;28;81251;-65
2023/10/27 06:17:22;;;;;;;3.42;1.75;;;23.60;57.70;;;;;;6158829;28;82957;-65
2023/10/27 06:20:22;;;;;;;2.90;1.70;;;23.50;57.90;;;;;;6153980;28;81012;-66
2023/10/27 06:23:23;;;;;;;2.72;1.80;;;23.60;57.70;;;;;;6179012;28;84902;-65
2023/10/27 06:26:23;;;;;;;3.60;1.90;;;23.50;57.70;;;;;;6144821;28;80660;-61
2023/10/27 06:29:24;;;;;;;2.97;1.90;;;23.40;58.20;;;;;;6168513;28;86105;-64
2023/10/27 06:32:24;;;;;;;5.30;2.03;;;23.30;59.60;;;;;;6162729;28;81194;-63
2023/10/27 06:35:25;;;;;;;3.25;1.90;;;23.30;59.10;;;;;;6165316;28;80493;-63
2023/10/27 06:38:26;;;;;;;2.58;1.65;;;23.30;59.60;;;;;;6158624;28;81411;-62
2023/10/27 06:41:26;;;;;;;4.95;1.80;;;23.30;60.10;;;;;;6158400;28;80483;-63
2023/10/27 06:44:27;;;;;;;2.70;1.98;;;23.30;60.20;;;;;;6155349;28;81018;-65
2023/10/27 06:47:27;;;;;;;2.90;1.95;;;23.30;60.10;;;;;;6158915;28;80544;-65
2023/10/27 06:50:27;;;;;;;4.20;2.30;;;23.30;60.50;;;;;;6163892;28;80985;-64
2023/10/27 06:53:28;;;;;;;3.47;2.20;;;23.30;60.90;;;;;;6164553;28;80667;-64
2023/10/27 06:56:29;;;;;;;4.65;1.90;;;23.30;61.50;;;;;;6156324;28;80714;-62
2023/10/27 06:59:29;;;;;;;3.50;2.03;;;23.30;61.70;;;;;;6165643;28;82168;-68
2023/10/27 07:02:30;;;;;;;3.95;2.50;;;23.30;63.20;;;;;;6163754;28;83463;-66
2023/10/27 07:05:30;;;;;;;5.00;2.13;;;23.30;62.50;;;;;;6156106;28;80442;-66
2023/10/27 07:08:31;;;;;;;6.22;2.30;;;23.30;63.20;;;;;;6151982;28;81756;-64
2023/10/27 07:11:31;;;;;;;3.70;2.10;;;23.30;63.50;;;;;;6163739;28;81959;-65
2023/10/27 07:14:32;;;;;;;3.33;1.75;;;23.30;63.20;;;;;;6164213;28;83018;-65
2023/10/27 07:17:32;;;;;;;2.97;1.80;;;23.30;64.10;;;;;;6156994;28;81617;-64
2023/10/27 07:20:33;;;;;;;3.72;1.95;;;23.30;64.00;;;;;;6158503;28;80722;-60
2023/10/27 07:23:33;;;;;;;5.88;2.47;;;23.30;65.30;;;;;;6160940;28;81319;-60
2023/10/27 07:26:34;;;;;;;4.53;2.13;;;23.30;64.40;;;;;;6184659;28;86650;-60
2023/10/27 07:29:34;;;;;;;4.70;2.42;;;23.20;62.90;;;;;;6184529;28;83537;-60
2023/10/27 07:32:35;;;;;;;4.50;2.22;;;23.20;62.30;;;;;;6187111;28;83661;-60
2023/10/27 07:35:35;;;;;;;3.97;2.55;;;23.20;62.30;;;;;;6155062;28;80814;-60
2023/10/27 07:38:36;;;;;;;4.90;2.40;;;23.20;61.80;;;;;;6141193;28;81660;-66
2023/10/27 07:41:37;;;;;;;4.43;2.13;;;23.20;61.80;;;;;;6143497;28;80561;-66
2023/10/27 07:44:37;;;;;;;7.28;2.58;;;23.20;61.30;;;;;;6148303;28;80594;-64
2023/10/27 07:47:38;;;;;;;4.00;2.38;;;23.30;61.20;;;;;;6133202;28;82101;-63
2023/10/27 07:50:40;;;;;;;3.65;2.45;;;23.20;60.90;;;;;;6142759;28;81404;-63
2023/10/27 07:53:40;;;;;;;3.97;2.72;;;23.30;61.10;;;;;;6189301;28;80758;-64
2023/10/27 07:56:41;;;;;;;3.35;2.30;;;23.30;61.30;;;;;;6161573;28;80517;-60
2023/10/27 07:59:43;;;;;;;7.35;2.90;;;23.30;60.90;;;;;;6183916;28;81295;-60
2023/10/27 08:02:43;;;;;;;4.65;2.28;;;23.30;60.70;;;;;;6202266;28;80521;-60
2023/10/27 08:05:44;;;;;;;4.00;2.38;;;23.30;60.90;;;;;;6205965;27;82089;-60
2023/10/27 08:08:46;;;;;;;4.00;2.22;;;23.30;60.90;;;;;;6224072;27;80340;-60
2023/10/27 08:11:46;;;;;;;3.88;2.20;;;23.30;60.90;;;;;;6177668;28;82581;-59
2023/10/27 08:14:48;;;;;;;8.18;2.58;;;23.30;61.10;;;;;;6177445;28;81045;-63
2023/10/27 08:17:48;;;;;;;5.30;3.10;;;23.30;61.20;;;;;;6168951;28;80335;-62
2023/10/27 08:20:50;;;;;;;5.45;2.92;;;23.30;61.30;;;;;;6172849;28;81531;-65
2023/10/27 08:23:50;;;;;;;6.82;3.28;;;23.30;61.70;;;;;;6177034;28;80246;-64
2023/10/27 08:26:51;;;;;;;6.55;3.08;;;23.30;62.30;;;;;;6190556;28;81485;-65
2023/10/27 08:29:51;;;;;;;6.15;3.25;;;23.30;62.10;;;;;;6168545;28;80380;-62
2023/10/27 08:32:53;;;;;;;7.07;3.00;;;23.30;61.70;;;;;;6161565;28;80687;-62
2023/10/27 08:35:53;;;;;;;8.18;3.15;;;23.30;62.20;;;;;;6158629;28;80384;-59
2023/10/27 08:38:54;;;;;;;6.88;2.75;;;23.30;62.40;;;;;;6184079;28;82016;-60
2023/10/27 08:41:55;;;;;;;5.80;2.90;;;23.30;61.80;;;;;;6184592;28;80956;-61
2023/10/27 08:44:55;;;;;;;4.78;3.22;;;23.30;61.20;;;;;;6196835;28;80826;-59
2023/10/27 08:47:56;;;;;;;7.18;3.40;;;23.30;61.50;;;;;;6197846;28;80834;-65
2023/10/27 08:50:57;;;;;;;6.78;3.05;;;23.30;61.80;;;;;;6186094;28;82146;-70
2023/10/27 08:53:57;;;;;;;5.63;2.80;;;23.30;61.60;;;;;;6188179;28;80576;-67
2023/10/27 08:56:58;;;;;;;7.50;2.78;;;23.30;61.70;;;;;;6189452;28;80436;-65
2023/10/27 08:59:58;;;;;;;6.45;3.22;;;23.30;61.60;;;;;;6197897;28;80489;-69
2023/10/27 09:02:59;;;;;;;5.07;2.90;;;23.30;61.70;;;;;;6193306;28;84828;-65
2023/10/27 09:06:00;;;;;;;9.90;3.60;;;23.30;61.60;;;;;;6182684;28;82823;-69
2023/10/27 09:09:00;;;;;;;6.32;3.10;;;23.30;61.50;;;;;;6191179;28;80266;-60
2023/10/27 09:12:01;;;;;;;10.95;3.40;;;23.30;61.40;;;;;;6167472;28;80539;-60
2023/10/27 09:15:04;;;;;;;7.15;3.13;;;23.30;61.30;;;;;;6170117;28;80552;-60
2023/10/27 09:18:05;;;;;;;6.53;2.95;;;23.30;61.30;;;;;;6187946;28;80751;-61
2023/10/27 09:21:06;;;;;;;5.63;3.13;;;23.30;61.00;;;;;;6166819;28;80611;-62
2023/10/27 09:24:06;;;;;;;5.78;2.95;;;23.20;60.80;;;;;;6176242;28;80080;-60
2023/10/27 09:27:07;;;;;;;6.60;3.20;;;23.20;61.50;;;;;;6172027;28;80613;-63
2023/10/27 09:30:08;;;;;;;4.47;2.50;;;23.20;62.30;;;;;;6206769;28;82948;-63
2023/10/27 09:33:08;;;;;;;6.65;3.63;;;23.20;61.80;;;;;;6202928;28;80460;-64
2023/10/27 09:36:10;;;;;;;3.63;2.70;;;23.20;61.50;;;;;;6209146;28;80295;-62
2023/10/27 09:39:11;;;;;;;4.13;2.88;;;23.30;61.40;;;;;;6196273;28;81949;-63
2023/10/27 09:42:12;;;;;;;3.80;2.55;;;23.30;61.70;;;;;;6173305;28;81445;-62
2023/10/27 09:45:13;;;;;;;2.97;2.30;;;23.30;61.20;;;;;;6173746;28;81287;-63
2023/10/27 09:48:14;;;;;;;7.43;2.70;;;23.30;61.60;;;;;;6173881;28;82675;-62
2023/10/27 09:51:17;;;;;;;5.38;2.60;;;23.30;61.30;;;;;;6223252;27;80333;-61
2023/10/27 09:54:18;;;;;;;3.10;2.13;;;23.30;61.30;;;;;;6217600;27;80429;-62
2023/10/27 09:57:18;;;;;;;3.55;2.58;;;23.30;61.30;;;;;;6213434;27;81046;-62
2023/10/27 10:00:19;;;;;;;2.95;2.33;;;23.30;61.40;;;;;;6207387;28;83487;-62
2023/10/27 10:03:23;;;;;;;5.53;2.33;;;23.30;61.50;;;;;;6215237;27;82336;-61
2023/10/27 10:06:23;;;;;;;7.18;2.53;;;23.30;61.40;;;;;;6206436;28;80563;-60
2023/10/27 10:09:24;;;;;;;6.70;2.80;;;23.30;61.20;;;;;;6209281;28;84014;-60
2023/10/27 10:12:24;;;;;;;5.57;2.72;;;23.40;61.20;;;;;;6161892;28;81173;-60
2023/10/27 10:15:25;;;;;;;5.20;2.15;;;23.30;61.20;;;;;;6188079;28;81712;-62
2023/10/27 10:18:25;;;;;;;5.20;2.65;;;23.30;61.60;;;;;;6148403;28;80739;-60
2023/10/27 10:21:26;;;;;;;4.82;2.75;;;23.30;60.90;;;;;;6147478;28;83049;-60
2023/10/27 10:24:28;;;;;;;3.70;2.53;;;23.30;61.00;;;;;;6159748;28;80824;-62
2023/10/27 10:27:28;;;;;;;4.95;3.00;;;23.30;61.30;;;;;;6186207;28;82959;-63
2023/10/27 10:30:29;;;;;;;5.72;3.15;;;23.30;60.90;;;;;;6192684;28;80923;-61
2023/10/27 10:33:29;;;;;;;7.38;3.47;;;23.30;61.00;;;;;;6187432;28;82175;-62
2023/10/27 10:36:31;;;;;;;4.38;2.65;;;23.30;61.30;;;;;;6197265;28;81032;-62
2023/10/27 10:39:31;;;;;;;3.65;2.65;;;23.30;61.40;;;;;;6188424;28;80514;-60
2023/10/27 10:42:31;;;;;;;5.13;2.65;;;23.20;60.70;;;;;;6182704;28;81813;-61
2023/10/27 10:45:32;;;;;;;4.85;3.20;;;23.30;61.00;;;;;;6186492;27;81022;-61
2023/10/27 10:48:33;;;;;;;12.30;3.03;;;23.20;61.00;;;;;;6189908;28;81187;-60
2023/10/27 10:51:37;;;;;;;6.72;3.22;;;23.20;61.10;;;;;;6159137;28;80702;-62
2023/10/27 10:54:38;;;;;;;5.78;2.85;;;23.20;61.00;;;;;;6167463;28;81011;-62
2023/10/27 10:57:39;;;;;;;6.88;3.10;;;23.30;61.10;;;;;;6173572;28;81030;-62
2023/10/27 11:00:40;;;;;;;4.32;2.70;;;23.30;61.00;;;;;;6170199;28;82849;-61
2023/10/27 11:03:40;;;;;;;4.95;2.75;;;23.20;61.00;;;;;;6161681;28;81764;-61
2023/10/27 11:06:41;;;;;;;4.30;2.80;;;23.30;61.30;;;;;;6174969;28;80510;-62
2023/10/27 11:09:41;;;;;;;8.10;2.60;;;23.30;61.10;;;;;;6181202;28;80559;-62
2023/10/27 11:12:42;;;;;;;5.22;2.78;;;23.30;61.00;;;;;;6148674;28;80934;-60
2023/10/27 11:15:43;;;;;;;3.30;2.53;;;23.30;61.10;;;;;;6156868;28;81914;-61
2023/10/27 11:18:44;;;;;;;5.05;2.58;;;23.30;61.10;;;;;;6166661;28;80614;-61
2023/10/27 11:21:44;;;;;;;5.60;3.38;;;23.30;61.30;;;;;;6163870;28;81039;-60
2023/10/27 11:24:45;;;;;;;4.32;2.63;;;23.20;61.40;;;;;;6166729;28;81013;-60
2023/10/27 11:27:45;;;;;;;4.53;2.60;;;23.30;61.10;;;;;;6157149;28;85056;-62
2023/10/27 11:30:46;;;;;;;6.75;2.70;;;23.30;61.10;;;;;;6168002;28;82804;-60
2023/10/27 11:33:46;;;;;;;6.32;3.25;;;23.30;61.70;;;;;;6176554;28;81422;-60
2023/10/27 11:36:47;;;;;;;3.53;2.65;;;23.30;61.30;;;;;;6178883;28;81072;-66
2023/10/27 11:39:49;;;;;;;4.40;2.60;;;23.30;61.30;;;;;;6173020;28;81389;-68
2023/10/27 11:42:50;;;;;;;5.03;2.72;;;23.30;61.50;;;;;;6178991;28;80433;-67
2023/10/27 11:45:50;;;;;;;8.13;2.97;;;23.20;61.40;;;;;;6157248;28;86984;-68
2023/10/27 11:48:51;;;;;;;4.65;3.10;;;23.20;61.20;;;;;;6155296;28;82380;-64
2023/10/27 11:51:52;;;;;;;5.82;3.13;;;23.20;60.70;;;;;;6174976;28;81168;-66
2023/10/27 11:54:52;;;;;;;4.22;3.45;;;23.10;61.30;;;;;;6181836;28;80918;-66
2023/10/27 11:57:53;;;;;;;5.82;3.35;;;22.90;61.20;;;;;;6192386;28;81163;-66
2023/10/27 12:00:53;;;;;;;5.72;2.97;;;22.80;61.70;;;;;;6159896;28;81405;-66
2023/10/27 12:03:54;;;;;;;4.35;3.00;;;22.90;61.90;;;;;;6168239;28;85056;-67
2023/10/27 12:06:55;;;;;;;7.50;4.00;;;22.90;62.10;;;;;;6165742;28;81044;-75
2023/10/27 12:09:55;;;;;;;11.43;3.45;;;22.80;61.90;;;;;;6166293;28;80802;-63
2023/10/27 12:12:56;;;;;;;5.72;3.67;;;22.80;62.00;;;;;;6157051;28;81073;-63
2023/10/27 12:15:56;;;;;;;7.20;2.92;;;22.80;62.30;;;;;;6161856;28;80313;-62
2023/10/27 12:18:57;;;;;;;4.10;2.97;;;22.90;62.50;;;;;;6179777;28;81206;-61
2023/10/27 12:21:57;;;;;;;5.20;3.15;;;22.90;62.50;;;;;;6174068;28;82808;-61
2023/10/27 12:24:58;;;;;;;5.03;2.65;;;22.90;62.80;;;;;;6158835;28;84560;-60
2023/10/27 12:27:59;;;;;;;4.78;3.10;;;22.90;63.60;;;;;;6164042;28;80747;-61
2023/10/27 12:30:59;;;;;;;5.78;3.75;;;22.90;63.20;;;;;;6176087;28;83274;-61
2023/10/27 12:34:00;;;;;;;7.53;4.93;;;22.90;63.40;;;;;;6180843;28;80817;-61
2023/10/27 12:37:00;;;;;;;8.35;3.67;;;22.80;62.60;;;;;;6180931;28;82307;-61
2023/10/27 12:40:01;;;;;;;5.57;3.75;;;22.80;63.10;;;;;;6185192;28;82540;-61
2023/10/27 12:43:01;;;;;;;6.35;3.70;;;22.80;63.00;;;;;;6198029;28;83411;-61
2023/10/27 12:46:02;;;;;;;5.38;3.63;;;22.80;63.10;;;;;;6199071;27;80348;-61
2023/10/27 12:49:03;;;;;;;8.40;3.35;;;22.90;63.50;;;;;;6194921;28;81221;-59
2023/10/27 12:52:04;;;;;;;5.65;3.50;;;22.90;63.30;;;;;;6185883;28;81235;-59
2023/10/27 12:55:05;;;;;;;4.60;3.65;;;22.90;63.60;;;;;;6165231;28;88019;-60
2023/10/27 12:58:08;;;;;;;5.93;3.35;;;22.90;63.90;;;;;;6170283;28;81327;-61
2023/10/27 13:01:09;;;;;;;4.50;3.30;;;23.00;64.30;;;;;;6163654;28;87837;-61
2023/10/27 13:04:11;;;;;;;5.63;3.17;;;23.10;64.20;;;;;;6183606;28;83615;-62
2023/10/27 13:07:12;;;;;;;8.75;4.03;;;23.00;64.20;;;;;;6190095;27;80746;-61
2023/10/27 13:10:12;;;;;;;6.07;3.63;;;23.00;64.40;;;;;;6179857;28;81826;-61
2023/10/27 13:13:13;;;;;;;8.95;3.97;;;23.00;64.50;;;;;;6176282;28;86977;-62
2023/10/27 13:16:13;;;;;;;10.55;3.83;;;23.00;64.40;;;;;;6160841;28;85463;-62
2023/10/27 13:19:14;;;;;;;8.48;4.70;;;23.10;64.80;;;;;;6159218;28;80434;-61
2023/10/27 13:22:15;;;;;;;7.65;3.83;;;23.10;64.80;;;;;;6171755;28;82464;-62
2023/10/27 13:25:15;;;;;;;6.93;4.28;;;23.00;64.60;;;;;;6133918;28;80338;-61
2023/10/27 13:28:16;;;;;;;6.68;3.88;;;23.00;64.50;;;;;;6149093;28;85227;-70
2023/10/27 13:31:17;;;;;;;7.13;3.92;;;23.10;64.20;;;;;;6162636;28;85177;-71
2023/10/27 13:34:18;;;;;;;6.80;4.18;;;23.10;63.90;;;;;;6171601;28;84523;-69
2023/10/27 13:37:18;;;;;;;4.93;3.83;;;23.10;63.80;;;;;;6166172;28;83170;-69
2023/10/27 13:40:19;;;;;;;6.22;3.65;;;23.10;63.80;;;;;;6173555;28;84355;-73
2023/10/27 13:43:21;;;;;;;5.88;3.90;;;23.10;63.70;;;;;;6155793;28;83289;-67
2023/10/27 13:46:21;;;;;;;11.18;4.07;;;23.20;63.80;;;;;;6173285;28;82832;-61
2023/10/27 13:49:22;;;;;;;8.50;3.63;;;23.20;63.90;;;;;;6186688;28;80494;-60
2023/10/27 13:52:22;;;;;;;11.80;4.38;;;23.20;64.00;;;;;;6178773;28;80665;-61
2023/10/27 13:55:23;;;;;;;10.85;4.38;;;23.20;64.40;;;;;;6174558;28;81055;-62
2023/10/27 13:58:24;;;;;;;7.95;4.00;;;23.20;64.50;;;;;;6180063;28;82070;-63
2023/10/27 14:01:25;;;;;;;7.90;4.90;;;23.30;64.10;;;;;;6192450;28;82267;-61
2023/10/27 14:04:25;;;;;;;9.77;4.57;;;23.30;64.20;;;;;;6199691;28;80663;-60
2023/10/27 14:07:26;;;;;;;8.70;4.28;;;23.30;64.40;;;;;;6184128;28;82026;-60
2023/10/27 14:10:26;;;;;;;8.35;4.60;;;23.30;64.50;;;;;;6168783;28;80581;-60
2023/10/27 14:13:27;;;;;;;7.65;4.40;;;23.30;64.50;;;;;;6164766;28;80978;-61
2023/10/27 14:16:28;;;;;;;9.48;4.28;;;23.30;64.50;;;;;;6166690;28;82041;-61
2023/10/27 14:19:28;;;;;;;9.18;4.40;;;23.30;64.60;;;;;;6160790;28;81368;-62
2023/10/27 14:22:31;;;;;;;7.70;4.28;;;23.30;64.70;;;;;;6168163;28;82297;-60
2023/10/27 14:25:31;;;;;;;7.32;4.47;;;23.40;65.10;;;;;;6183276;28;81406;-61
2023/10/27 14:28:33;;;;;;;6.03;4.05;;;23.40;65.00;;;;;;6201726;28;80637;-61
2023/10/27 14:31:34;;;;;;;5.47;3.63;;;23.40;65.00;;;;;;6187490;28;81123;-60
2023/10/27 14:34:34;;;;;;;6.88;4.05;;;23.40;65.10;;;;;;6196581;28;81487;-62
2023/10/27 14:37:36;;;;;;;5.75;3.83;;;23.40;64.90;;;;;;6172873;28;82125;-62
2023/10/27 14:40:36;;;;;;;3.95;3.47;;;23.40;64.80;;;;;;6152022;28;80355;-70
2023/10/27 14:43:37;;;;;;;7.50;3.45;;;23.40;64.70;;;;;;6157469;28;81140;-68
2023/10/27 14:46:38;;;;;;;5.80;3.55;;;23.40;64.70;;;;;;6152477;28;82082;-70
2023/10/27 14:49:39;;;;;;;4.05;3.10;;;23.50;64.70;;;;;;6148416;28;82077;-69
2023/10/27 14:52:39;;;;;;;11.32;3.83;;;23.50;64.50;;;;;;6150498;28;81743;-68
2023/10/27 14:55:40;;;;;;;5.95;3.90;;;23.50;64.30;;;;;;6177935;28;81770;-68
2023/10/27 14:58:42;;;;;;;7.88;5.05;;;23.50;64.50;;;;;;6191491;28;80451;-65
2023/10/27 15:01:42;;;;;;;6.22;3.55;;;23.50;64.50;;;;;;6190146;28;81777;-64
2023/10/27 15:04:43;;;;;;;6.18;4.00;;;23.50;64.50;;;;;;6192855;28;81693;-65
2023/10/27 15:07:45;;;;;;;5.13;3.70;;;23.50;64.60;;;;;;6197391;28;81644;-63
2023/10/27 15:10:45;;;;;;;5.05;3.45;;;23.50;64.50;;;;;;6193580;28;80635;-64
2023/10/27 15:13:46;;;;;;;7.40;3.95;;;23.50;64.50;;;;;;6192628;28;81089;-64
2023/10/27 15:16:46;;;;;;;4.85;3.67;;;23.50;64.40;;;;;;6172773;28;80303;-64
2023/10/27 15:19:47;;;;;;;5.57;3.67;;;23.50;64.60;;;;;;6145885;28;80320;-65
2023/10/27 15:22:47;;;;;;;6.82;3.55;;;23.40;64.50;;;;;;6149392;28;81476;-66
2023/10/27 15:25:48;;;;;;;4.80;3.20;;;23.40;64.50;;;;;;6175752;28;80795;-66
2023/10/27 15:28:48;;;;;;;7.25;3.28;;;23.40;64.30;;;;;;6187208;28;80889;-78
2023/10/27 15:31:49;;;;;;;4.45;3.05;;;23.30;64.30;;;;;;6187842;28;80883;-68
2023/10/27 15:34:50;;;;;;;4.85;3.33;;;23.40;64.40;;;;;;6193518;28;80800;-69
2023/10/27 15:37:52;;;;;;;6.45;3.20;;;23.40;64.20;;;;;;6189731;28;80994;-67